Time;durP1;ratioP1;P1;durP2;ratioP2;P2;SDS_P1;SDS_P2;PMS_P1;PMS_P2;Temp;Humidity;BMP_temperature;BMP_pressure;BME280_temperature;BME280_humidity;BME280_pressure;Samples;Min_cycle;Max_cycle;Signal;HPM_P1;HPM_P2
2023/10/14 00:01:13;;;;;;;16.20;12.10;;;;;;;9.84;100.00;100578.80;88380;283;137067;-71
2023/10/14 00:03:29;;;;;;;14.60;12.20;;;;;;;9.86;100.00;100581.89;88501;284;24037;-71
2023/10/14 00:05:30;;;;;;;13.00;11.60;;;;;;;9.90;100.00;100579.34;88663;281;137022;-71
2023/10/14 00:07:32;;;;;;;14.80;11.80;;;;;;;9.92;100.00;100577.19;88477;284;24182;-70
2023/10/14 00:09:42;;;;;;;12.50;10.80;;;;;;;9.92;100.00;100574.00;88252;285;137050;-70
2023/10/14 00:11:47;;;;;;;15.30;11.20;;;;;;;9.91;100.00;100578.37;88570;283;22557;-71
2023/10/14 00:13:56;;;;;;;12.10;9.90;;;;;;;9.89;100.00;100580.48;88282;283;137872;-71
2023/10/14 00:16:01;;;;;;;11.40;10.20;;;;;;;9.92;100.00;100585.34;88415;283;24317;-73
2023/10/14 00:18:03;;;;;;;13.40;10.50;;;;;;;9.96;100.00;100590.71;88494;276;22693;-71
2023/10/14 00:20:08;;;;;;;15.30;11.20;;;;;;;10.01;100.00;100590.70;88263;284;136972;-71
2023/10/14 00:22:10;;;;;;;11.50;10.30;;;;;;;10.03;100.00;100588.48;88395;283;22522;-73
2023/10/14 00:24:16;;;;;;;13.30;11.70;;;;;;;10.01;100.00;100585.91;88373;283;137298;-71
2023/10/14 00:26:20;;;;;;;14.30;11.10;;;;;;;9.96;100.00;100584.52;88508;284;25141;-75
2023/10/14 00:28:24;;;;;;;12.40;10.40;;;;;;;9.91;100.00;100581.56;88459;284;137080;-72
2023/10/14 00:30:28;;;;;;;12.10;9.30;;;;;;;9.88;100.00;100581.58;88460;280;26247;-73
2023/10/14 00:32:30;;;;;;;12.60;10.70;;;;;;;9.86;100.00;100582.27;88370;283;136936;-72
2023/10/14 00:34:32;;;;;;;11.00;9.70;;;;;;;9.87;100.00;100582.48;88404;280;22545;-72
2023/10/14 00:36:36;;;;;;;11.70;10.40;;;;;;;9.90;100.00;100580.64;88278;276;137640;-72
2023/10/14 00:38:38;;;;;;;11.20;10.00;;;;;;;9.91;100.00;100582.09;88392;276;22553;-71
2023/10/14 00:40:45;;;;;;;12.80;8.40;;;;;;;9.90;100.00;100577.21;88330;275;136982;-71
2023/10/14 00:42:50;;;;;;;10.60;8.40;;;;;;;9.93;100.00;100580.81;88415;280;22537;-71
2023/10/14 00:44:52;;;;;;;9.80;8.80;;;;;;;9.93;100.00;100576.08;88262;284;137900;-70
2023/10/14 00:46:54;;;;;;;10.60;9.50;;;;;;;9.94;100.00;100566.98;88340;283;24052;-70
2023/10/14 00:49:03;;;;;;;11.40;9.60;;;;;;;9.93;100.00;100559.61;88323;279;136788;-70
2023/10/14 00:51:10;;;;;;;11.80;9.90;;;;;;;9.94;100.00;100563.79;88465;285;22562;-70
2023/10/14 00:53:12;;;;;;;11.00;9.40;;;;;;;9.93;100.00;100560.86;88269;275;136840;-70
2023/10/14 00:55:14;;;;;;;12.90;9.30;;;;;;;9.92;100.00;100559.70;88420;276;25083;-72
2023/10/14 00:59:21;;;;;;;9.90;8.50;;;;;;;9.92;100.00;100555.14;88371;284;25240;-70
2023/10/14 01:01:28;;;;;;;11.20;9.20;;;;;;;9.92;100.00;100546.09;88361;283;136749;-71
2023/10/14 01:03:36;;;;;;;11.60;10.30;;;;;;;9.94;100.00;100542.28;88367;277;25274;-70
2023/10/14 01:05:38;;;;;;;10.20;8.70;;;;;;;9.93;100.00;100535.97;88364;280;136978;-71
2023/10/14 01:07:40;;;;;;;12.30;8.70;;;;;;;9.94;100.00;100534.83;88413;283;22626;-71
2023/10/14 01:11:48;;;;;;;;;;;;;;;10.01;100.00;100533.77;88524;280;22535;-72
2023/10/14 01:13:51;;;;;;;13.70;9.00;;;;;;;10.00;100.00;100526.33;88454;277;122991;-71
2023/10/14 01:16:55;;;;;;;10.30;8.60;;;;;;;9.95;100.00;100516.81;88582;283;23785;-73
2023/10/14 01:18:25;;;;;;;12.00;9.20;;;;;;;9.98;100.00;100515.31;88562;275;25545;-73
2023/10/14 01:20:36;;;;;;;11.40;9.20;;;;;;;9.98;100.00;100511.34;88400;280;136952;-71
2023/10/14 01:22:38;;;;;;;12.60;9.00;;;;;;;10.00;100.00;100511.65;88376;283;23413;-73
2023/10/14 01:24:42;;;;;;;11.50;8.40;;;;;;;9.99;100.00;100503.76;88343;280;138047;-71
2023/10/14 01:27:01;;;;;;;9.90;8.30;;;;;;;10.01;100.00;100500.02;88257;277;24366;-71
2023/10/14 01:29:07;;;;;;;12.50;8.30;;;;;;;10.03;100.00;100498.21;88374;283;136849;-71
2023/10/14 01:31:31;;;;;;;9.80;8.40;;;;;;;10.04;100.00;100500.20;88347;277;22557;-70
2023/10/14 01:33:36;;;;;;;11.70;9.00;;;;;;;10.02;100.00;100498.60;88368;283;136764;-70
2023/10/14 01:35:43;;;;;;;12.00;8.70;;;;;;;9.95;100.00;100495.35;88384;278;24428;-72
2023/10/14 01:37:45;;;;;;;14.30;9.40;;;;;;;9.90;100.00;100492.58;88537;285;138102;-71
2023/10/14 01:39:56;;;;;;;11.50;8.20;;;;;;;9.87;100.00;100492.86;88429;275;22585;-73
2023/10/14 01:41:58;;;;;;;14.70;9.70;;;;;;;9.85;100.00;100490.15;88275;283;138620;-70
2023/10/14 01:44:05;;;;;;;13.40;10.10;;;;;;;9.83;100.00;100488.77;88298;275;22621;-73
2023/10/14 01:46:10;;;;;;;12.60;9.40;;;;;;;9.80;100.00;100486.61;88390;282;25087;-71
2023/10/14 01:48:13;;;;;;;12.50;10.00;;;;;;;9.76;100.00;100489.07;88347;276;137145;-70
2023/10/14 01:50:15;;;;;;;13.40;11.10;;;;;;;9.77;100.00;100490.21;88377;275;25083;-71
2023/10/14 01:52:19;;;;;;;12.20;9.40;;;;;;;9.69;100.00;100483.42;88134;283;138301;-71
2023/10/14 01:54:22;;;;;;;12.10;8.70;;;;;;;9.75;100.00;100494.53;88674;275;24018;-70
2023/10/14 01:56:27;;;;;;;11.90;9.10;;;;;;;9.73;100.00;100497.54;88352;279;138290;-70
2023/10/14 01:58:32;;;;;;;12.60;9.70;;;;;;;9.72;100.00;100498.94;88310;277;24060;-71
2023/10/14 02:00:39;;;;;;;9.50;8.60;;;;;;;9.70;100.00;100496.95;89870;281;136508;-71
2023/10/14 02:02:48;;;;;;;12.50;9.40;;;;;;;9.70;100.00;100494.73;88482;283;23865;-71
2023/10/14 02:04:56;;;;;;;8.60;7.80;;;;;;;9.69;100.00;100495.01;88331;275;136740;-65
2023/10/14 02:07:14;;;;;;;9.90;7.90;;;;;;;9.68;100.00;100498.10;88275;281;25218;-72
2023/10/14 02:09:17;;;;;;;8.70;7.70;;;;;;;9.69;100.00;100500.65;88272;280;136718;-70
2023/10/14 02:11:26;;;;;;;9.70;7.80;;;;;;;9.71;100.00;100503.98;88621;283;22537;-69
2023/10/14 02:13:28;;;;;;;10.20;8.70;;;;;;;9.72;100.00;100503.13;88346;279;136540;-69
2023/10/14 02:15:30;;;;;;;9.20;8.00;;;;;;;9.72;100.00;100500.34;88357;285;22533;-71
2023/10/14 02:17:32;;;;;;;11.10;8.60;;;;;;;9.73;100.00;100505.39;88286;280;136483;-71
2023/10/14 02:21:35;;;;;;;10.50;8.60;;;;;;;9.73;100.00;100504.48;88296;277;136364;-69
2023/10/14 02:23:47;;;;;;;10.80;8.90;;;;;;;9.72;100.00;100501.70;88317;277;22635;-67
2023/10/14 02:25:55;;;;;;;10.60;8.80;;;;;;;9.71;100.00;100497.24;88398;282;138161;-70
2023/10/14 02:27:58;;;;;;;10.60;9.30;;;;;;;9.70;100.00;100496.81;88481;279;24017;-70
2023/10/14 02:30:03;;;;;;;10.20;9.20;;;;;;;9.68;100.00;100493.52;88375;283;137603;-70
2023/10/14 02:32:11;;;;;;;15.10;9.50;;;;;;;9.66;100.00;100491.80;88434;279;137470;-71
2023/10/14 02:34:15;;;;;;;11.40;9.70;;;;;;;9.63;100.00;100491.67;88332;276;23751;-70
2023/10/14 02:36:17;;;;;;;10.30;8.60;;;;;;;9.62;100.00;100497.95;88391;280;138676;-69
2023/10/14 02:38:19;;;;;;;11.10;9.90;;;;;;;9.61;100.00;100495.36;88311;283;23883;-71
2023/10/14 02:40:24;;;;;;;10.20;9.20;;;;;;;9.61;100.00;100485.33;88377;276;137264;-69
2023/10/14 02:42:27;;;;;;;12.20;9.30;;;;;;;9.61;100.00;100483.39;88403;279;23345;-70
2023/10/14 02:44:32;;;;;;;9.60;8.40;;;;;;;9.59;100.00;100481.98;88299;279;137107;-69
2023/10/14 02:46:41;;;;;;;9.30;8.40;;;;;;;9.61;100.00;100486.23;88372;276;22537;-70
2023/10/14 02:48:52;;;;;;;10.70;8.30;;;;;;;9.62;100.00;100482.16;88509;277;138221;-70
2023/10/14 02:50:56;;;;;;;9.80;8.00;;;;;;;9.64;100.00;100479.31;88366;276;22534;-70
2023/10/14 02:53:06;;;;;;;9.80;8.40;;;;;;;9.65;100.00;100474.34;88324;279;136834;-69
2023/10/14 02:55:21;;;;;;;9.50;7.50;;;;;;;9.65;100.00;100468.29;88412;283;22536;-69
2023/10/14 03:04:07;;;;;;;11.30;8.90;;;;;;;9.69;100.00;100449.60;88284;281;137304;-69
2023/10/14 03:06:14;;;;;;;10.80;9.30;;;;;;;9.67;100.00;100447.88;88381;275;25211;-69
2023/10/14 03:08:17;;;;;;;11.00;9.70;;;;;;;9.68;100.00;100442.44;88203;277;139631;-70
2023/10/14 03:10:34;;;;;;;10.10;9.00;;;;;;;9.68;100.00;100441.75;88385;279;22537;-70
2023/10/14 03:12:39;;;;;;;10.50;9.40;;;;;;;9.67;100.00;100435.80;88329;283;138537;-73
2023/10/14 03:14:42;;;;;;;11.80;9.40;;;;;;;9.67;100.00;100439.40;88555;275;22671;-71
2023/10/14 03:16:44;;;;;;;9.40;8.50;;;;;;;9.69;100.00;100433.13;88566;283;137171;-65
2023/10/14 03:18:46;;;;;;;10.20;9.10;;;;;;;9.69;100.00;100428.98;88590;283;23827;-76
2023/10/14 03:21:00;;;;;;;9.10;8.10;;;;;;;9.68;100.00;100424.44;88333;275;137221;-72
2023/10/14 03:23:23;;;;;;;9.20;8.40;;;;;;;9.71;100.00;100420.42;88412;276;24018;-74
2023/10/14 03:25:27;;;;;;;8.70;7.80;;;;;;;9.73;100.00;100417.02;88418;281;136504;-71
2023/10/14 03:27:32;;;;;;;8.50;7.60;;;;;;;9.74;100.00;100411.52;88371;277;25710;-69
2023/10/14 03:29:35;;;;;;;8.60;7.70;;;;;;;9.78;100.00;100415.17;88472;283;137254;-73
2023/10/14 03:31:37;;;;;;;9.70;7.20;;;;;;;9.80;100.00;100412.63;88373;276;23840;-71
2023/10/14 03:33:44;;;;;;;8.20;7.10;;;;;;;9.87;100.00;100412.35;88318;275;137019;-71
2023/10/14 03:35:54;;;;;;;6.90;6.20;;;;;;;9.94;100.00;100410.39;88395;276;22533;-71
2023/10/14 03:38:00;;;;;;;8.30;7.30;;;;;;;10.03;100.00;100412.05;88298;280;136678;-69
2023/10/14 03:42:23;;;;;;;8.50;7.20;;;;;;;10.15;100.00;100406.17;88395;276;22541;-71
2023/10/14 03:44:27;;;;;;;8.00;7.00;;;;;;;10.18;100.00;100410.43;88290;283;138426;-70
2023/10/14 03:46:34;;;;;;;7.60;6.80;;;;;;;10.21;100.00;100411.02;88465;276;25328;-71
2023/10/14 03:48:45;;;;;;;7.90;7.20;;;;;;;10.24;100.00;100412.02;88271;283;137226;-68
2023/10/14 03:50:48;;;;;;;6.80;6.20;;;;;;;10.24;100.00;100409.98;88603;282;25208;-70
2023/10/14 03:52:53;;;;;;;7.90;7.10;;;;;;;10.25;100.00;100412.38;88351;275;136960;-71
2023/10/14 03:54:55;;;;;;;;;;;;;;;10.25;100.00;100412.65;88461;280;23924;-77
2023/10/14 03:56:58;;;;;;;7.90;7.00;;;;;;;10.23;100.00;100408.25;88540;279;125850;-77
2023/10/14 03:59:02;;;;;;;8.40;7.60;;;;;;;10.23;100.00;100416.90;89387;282;23748;-78
2023/10/14 04:01:04;;;;;;;8.10;7.30;;;;;;;10.24;100.00;100412.92;88763;277;136772;-74
2023/10/14 04:03:24;;;;;;;8.30;7.30;;;;;;;10.23;100.00;100411.60;88255;275;25140;-76
2023/10/14 04:05:27;;;;;;;7.80;7.00;;;;;;;10.24;100.00;100410.10;88190;283;137195;-77
2023/10/14 04:07:29;;;;;;;10.40;7.10;;;;;;;10.22;100.00;100410.81;88347;275;22524;-76
2023/10/14 04:09:37;;;;;;;6.80;6.10;;;;;;;10.20;100.00;100406.08;88272;275;137139;-80
2023/10/14 04:11:39;;;;;;;7.50;6.80;;;;;;;10.20;100.00;100406.69;88472;275;25144;-78
2023/10/14 04:13:58;;;;;;;7.50;6.80;;;;;;;10.20;100.00;100402.42;88256;278;137031;-80
2023/10/14 04:16:00;;;;;;;6.10;5.50;;;;;;;10.22;100.00;100398.48;88380;283;22958;-82
2023/10/14 04:18:12;;;;;;;8.50;6.30;;;;;;;10.23;100.00;100390.30;88195;276;138555;-75
2023/10/14 04:20:21;;;;;;;6.60;5.90;;;;;;;10.24;100.00;100388.74;88428;275;138807;-75
2023/10/14 04:26:34;;;;;;;8.80;6.90;;;;;;;10.22;100.00;100391.30;88344;279;22530;-76
2023/10/14 04:28:53;;;;;;;7.10;6.50;;;;;;;10.23;100.00;100393.16;88365;283;136984;-76
2023/10/14 04:31:00;;;;;;;9.40;7.40;;;;;;;10.24;100.00;100394.78;88322;276;22913;-72
2023/10/14 04:35:22;;;;;;;9.60;8.10;;;;;;;10.38;100.00;100399.95;88564;276;22533;-77
2023/10/14 04:37:36;;;;;;;8.10;7.40;;;;;;;10.53;100.00;100397.72;88572;279;137219;-75
2023/10/14 04:39:44;;;;;;;8.60;7.20;;;;;;;10.72;100.00;100395.92;88698;275;25168;-73
2023/10/14 04:42:03;;;;;;;7.30;6.70;;;;;;;10.94;100.00;100392.95;89083;274;136713;-71
2023/10/14 04:44:11;;;;;;;7.30;6.60;;;;;;;11.16;100.00;100389.98;88650;279;138790;-76
2023/10/14 04:46:14;;;;;;;8.80;6.50;;;;;;;11.28;100.00;100384.35;88691;278;24170;-77
2023/10/14 04:48:27;;;;;;;7.40;6.80;;;;;;;11.38;100.00;100381.43;88517;280;138008;-71
2023/10/14 04:50:31;;;;;;;6.40;5.80;;;;;;;11.54;100.00;100376.95;88570;280;25995;-71
2023/10/14 04:52:35;;;;;;;7.60;6.80;;;;;;;11.75;100.00;100379.29;88424;279;137987;-78
2023/10/14 04:54:51;;;;;;;9.00;6.50;;;;;;;11.96;100.00;100379.27;88613;279;25080;-80
2023/10/14 04:56:57;;;;;;;6.80;5.80;;;;;;;12.19;100.00;100381.86;88556;271;137201;-75
2023/10/14 04:58:59;;;;;;;7.70;5.50;;;;;;;12.42;100.00;100379.77;88722;279;24205;-74
2023/10/14 05:01:01;;;;;;;6.90;5.60;;;;;;;12.66;99.78;100380.39;88457;272;137563;-77
2023/10/14 05:03:05;;;;;;;5.20;4.80;;;;;;;12.93;99.36;100384.38;88571;272;22542;-73
2023/10/14 05:05:07;;;;;;;8.60;5.70;;;;;;;13.23;96.88;100384.34;88439;276;137311;-78
2023/10/14 05:07:11;;;;;;;7.20;5.10;;;;;;;13.47;95.11;100381.63;88450;275;23883;-76
2023/10/14 05:09:27;;;;;;;5.90;5.40;;;;;;;13.66;94.11;100378.65;88776;277;136200;-75
2023/10/14 05:11:36;;;;;;;8.70;5.80;;;;;;;13.87;93.76;100373.59;88645;272;22534;-75
2023/10/14 05:13:42;;;;;;;5.70;5.20;;;;;;;14.07;92.12;100370.57;88531;272;137306;-77
2023/10/14 05:15:45;;;;;;;6.00;5.50;;;;;;;14.21;91.37;100361.30;88552;273;24052;-72
2023/10/14 05:17:52;;;;;;;5.70;5.20;;;;;;;14.37;90.90;100358.71;88383;272;136282;-78
2023/10/14 05:19:57;;;;;;;9.80;5.70;;;;;;;14.60;90.60;100355.91;88549;276;22534;-75
2023/10/14 05:22:10;;;;;;;7.90;6.60;;;;;;;14.86;89.12;100360.02;88561;280;137433;-74
2023/10/14 05:24:12;;;;;;;8.10;6.00;;;;;;;15.08;87.76;100360.09;88505;277;138061;-75
2023/10/14 05:26:15;;;;;;;5.90;5.30;;;;;;;15.25;87.25;100360.54;88567;279;22634;-77
2023/10/14 05:28:17;;;;;;;6.30;5.80;;;;;;;15.36;86.57;100364.17;88462;272;136501;-75
2023/10/14 05:30:21;;;;;;;5.60;5.00;;;;;;;15.36;86.73;100359.13;88555;280;24781;-70
2023/10/14 05:32:24;;;;;;;6.00;5.30;;;;;;;15.36;87.27;100350.63;88691;272;136291;-80
2023/10/14 05:34:29;;;;;;;6.50;5.80;;;;;;;15.46;87.40;100349.96;88673;272;24330;-78
2023/10/14 05:36:32;;;;;;;6.80;5.80;;;;;;;15.65;86.61;100341.84;88629;272;136576;-73
2023/10/14 05:38:34;;;;;;;6.80;6.00;;;;;;;15.85;85.87;100336.89;88358;271;25102;-76
2023/10/14 05:40:40;;;;;;;5.50;5.00;;;;;;;16.05;85.79;100328.30;88306;274;136068;-78
2023/10/14 05:42:45;;;;;;;5.80;4.50;;;;;;;16.31;84.40;100329.23;88512;272;25131;-77
2023/10/14 05:44:48;;;;;;;7.20;6.60;;;;;;;16.34;83.95;100328.15;88740;276;135962;-80
2023/10/14 05:46:50;;;;;;;7.60;6.90;;;;;;;16.38;84.06;100330.09;88697;279;25258;-82
2023/10/14 05:48:53;;;;;;;6.00;5.40;;;;;;;16.50;84.13;100331.92;88659;276;136351;-79
2023/10/14 05:50:56;;;;;;;6.90;6.00;;;;;;;16.70;83.16;100330.45;89178;276;22528;-77
2023/10/14 05:53:00;;;;;;;6.90;6.20;;;;;;;16.87;82.58;100326.79;88475;276;136155;-76
2023/10/14 05:55:05;;;;;;;6.80;6.20;;;;;;;16.97;81.87;100321.39;88524;276;25254;-81
2023/10/14 05:57:11;;;;;;;6.10;5.60;;;;;;;16.94;82.12;100328.80;88486;276;137358;-76
2023/10/14 05:59:14;;;;;;;7.00;5.50;;;;;;;16.88;82.53;100331.93;88574;272;24024;-78
2023/10/14 06:01:16;;;;;;;6.80;6.10;;;;;;;16.81;83.35;100334.48;88676;272;135855;-74
2023/10/14 06:03:19;;;;;;;6.90;6.20;;;;;;;16.68;83.83;100338.27;88970;276;22747;-75
2023/10/14 06:05:25;;;;;;;6.30;5.70;;;;;;;16.39;85.19;100338.28;88623;274;136121;-75
2023/10/14 06:07:27;;;;;;;7.00;5.70;;;;;;;15.97;88.04;100346.19;88783;272;23979;-79
2023/10/14 06:09:31;;;;;;;8.30;6.40;;;;;;;15.58;90.36;100345.05;88431;272;137473;-75
2023/10/14 06:11:34;;;;;;;;;;;;;;;15.29;92.30;100343.65;88782;280;23977;-74
2023/10/14 06:13:35;;;;;;;9.40;7.60;;;;;;;15.03;94.87;100340.83;88329;272;122670;-75
2023/10/14 06:15:39;;;;;;;10.70;9.60;;;;;;;14.78;96.81;100343.05;88331;273;25677;-80
2023/10/14 06:17:41;;;;;;;11.50;8.80;;;;;;;14.54;99.14;100345.29;88679;272;137362;-72
2023/10/14 06:19:43;;;;;;;7.50;6.50;;;;;;;14.38;99.90;100342.26;88493;276;23493;-72
2023/10/14 06:21:45;;;;;;;12.10;8.00;;;;;;;14.31;100.00;100343.30;88280;276;137166;-78
2023/10/14 06:23:47;;;;;;;9.60;7.80;;;;;;;14.24;100.00;100347.27;88677;272;22519;-78
2023/10/14 06:25:49;;;;;;;8.80;6.70;;;;;;;14.17;100.00;100346.91;88164;276;137299;-75
2023/10/14 06:27:51;;;;;;;8.50;7.50;;;;;;;14.10;100.00;100341.17;88544;272;22576;-79
2023/10/14 06:29:55;;;;;;;8.30;7.50;;;;;;;14.04;100.00;100337.19;88451;274;137769;-74
2023/10/14 06:32:01;;;;;;;8.60;7.30;;;;;;;14.00;100.00;100336.59;89019;276;24201;-73
2023/10/14 06:34:21;;;;;;;10.10;6.70;;;;;;;14.01;100.00;100335.09;88535;277;22591;-80
2023/10/14 06:36:24;;;;;;;8.90;7.50;;;;;;;14.07;100.00;100335.69;88650;271;138761;-77
2023/10/14 06:38:26;;;;;;;9.00;8.30;;;;;;;14.15;100.00;100334.17;88336;274;22709;-78
2023/10/14 06:40:35;;;;;;;8.90;7.10;;;;;;;14.27;100.00;100338.34;88531;279;137112;-78
2023/10/14 06:42:40;;;;;;;9.70;7.80;;;;;;;14.31;100.00;100330.73;88762;274;25080;-76
2023/10/14 06:44:45;;;;;;;8.50;7.30;;;;;;;14.33;100.00;100327.67;89245;274;137153;-78
2023/10/14 06:46:47;;;;;;;8.40;7.60;;;;;;;14.33;100.00;100334.71;89082;279;25090;-76
2023/10/14 06:48:55;;;;;;;8.10;7.40;;;;;;;14.37;100.00;100335.54;88385;273;137162;-74
2023/10/14 06:50:59;;;;;;;10.10;8.10;;;;;;;14.42;100.00;100337.50;88514;276;22550;-78
2023/10/14 06:53:01;;;;;;;9.80;7.80;;;;;;;14.48;100.00;100338.98;88474;275;137579;-73
2023/10/14 06:55:07;;;;;;;8.70;7.10;;;;;;;14.50;100.00;100332.77;88413;276;24049;-79
2023/10/14 06:57:09;;;;;;;9.90;8.50;;;;;;;14.47;100.00;100326.41;88408;279;136643;-81
2023/10/14 06:59:13;;;;;;;8.80;7.90;;;;;;;14.48;100.00;100328.80;88611;272;24051;-80
2023/10/14 07:01:16;;;;;;;9.50;8.50;;;;;;;14.45;100.00;100330.95;88453;279;137676;-78
2023/10/14 07:03:18;;;;;;;9.90;9.00;;;;;;;14.43;100.00;100328.73;88451;279;22596;-75
2023/10/14 07:05:21;;;;;;;17.30;10.50;;;;;;;14.40;100.00;100321.86;88379;273;137803;-78
2023/10/14 07:07:23;;;;;;;12.00;9.00;;;;;;;14.40;100.00;100318.48;89005;272;25624;-76
2023/10/14 07:09:27;;;;;;;11.90;8.30;;;;;;;14.41;100.00;100317.98;88323;271;138494;-79
2023/10/14 07:11:29;;;;;;;;;;;;;;;14.44;100.00;100315.58;88641;280;26476;-79
2023/10/14 07:13:31;;;;;;;12.60;9.50;;;;;;;14.24;100.00;100277.23;88540;276;124442;-72
2023/10/14 07:15:38;;;;;;;9.90;8.90;;;;;;;14.57;100.00;100313.22;88345;272;25204;-76
2023/10/14 07:17:42;;;;;;;11.00;9.30;;;;;;;14.68;100.00;100312.67;88256;277;137057;-74
2023/10/14 07:19:43;;;;;;;11.20;7.90;;;;;;;14.78;100.00;100310.99;88440;280;22544;-78
2023/10/14 07:21:45;;;;;;;10.50;8.50;;;;;;;14.90;100.00;100311.48;88473;271;137100;-77
2023/10/14 07:23:47;;;;;;;10.70;9.20;;;;;;;15.00;100.00;100311.91;88608;279;22472;-76
2023/10/14 07:25:49;;;;;;;10.80;8.80;;;;;;;15.08;100.00;100310.94;88954;277;137986;-76
2023/10/14 07:27:51;;;;;;;11.50;7.70;;;;;;;15.16;100.00;100307.91;89414;272;22880;-77
2023/10/14 07:29:54;;;;;;;11.30;9.40;;;;;;;15.27;100.00;100307.29;88810;272;138125;-70
2023/10/14 07:31:57;;;;;;;12.10;8.60;;;;;;;15.37;100.00;100307.85;88728;281;22769;-78
2023/10/14 07:34:02;;;;;;;9.00;8.20;;;;;;;15.47;100.00;100303.27;88110;281;136524;-77
2023/10/14 07:36:06;;;;;;;9.50;8.40;;;;;;;15.55;100.00;100304.70;88100;280;138978;-78
2023/10/14 07:38:10;;;;;;;10.60;9.50;;;;;;;15.66;100.00;100306.26;89625;279;24527;-74
2023/10/14 07:40:34;;;;;;;9.40;7.80;;;;;;;15.69;100.00;100290.16;88469;279;137412;-76
2023/10/14 07:42:35;;;;;;;15.80;9.80;;;;;;;15.90;100.00;100302.77;88502;279;22534;-79
2023/10/14 07:44:37;;;;;;;17.50;9.60;;;;;;;16.01;100.00;100297.09;88326;279;137341;-77
2023/10/14 07:46:38;;;;;;;12.00;8.20;;;;;;;16.12;100.00;100301.66;88384;279;25324;-79
2023/10/14 07:48:40;;;;;;;11.60;8.70;;;;;;;16.24;100.00;100298.87;88032;279;613198;-77
2023/10/14 07:50:46;;;;;;;21.30;9.50;;;;;;;16.34;100.00;100291.53;88437;271;22534;-79
2023/10/14 07:52:48;;;;;;;17.60;9.30;;;;;;;16.42;100.00;100290.52;89677;278;137433;-75
2023/10/14 07:54:51;;;;;;;13.50;8.60;;;;;;;16.50;100.00;100291.19;88451;271;22528;-77
2023/10/14 07:56:53;;;;;;;16.10;8.50;;;;;;;16.58;100.00;100289.25;88535;272;137289;-79
2023/10/14 07:58:56;;;;;;;23.80;9.70;;;;;;;16.67;100.00;100289.27;88499;276;23346;-78
2023/10/14 08:01:06;;;;;;;12.60;7.50;;;;;;;16.76;100.00;100283.03;88653;276;137089;-76
2023/10/14 08:03:14;;;;;;;11.90;8.40;;;;;;;16.85;100.00;100280.22;88660;276;23757;-77
2023/10/14 08:05:17;;;;;;;11.20;7.30;;;;;;;16.95;100.00;100277.77;88976;280;138489;-76
2023/10/14 08:07:19;;;;;;;15.80;8.10;;;;;;;17.04;100.00;100280.84;89392;272;22536;-75
2023/10/14 08:09:25;;;;;;;14.00;7.70;;;;;;;17.11;100.00;100280.86;89183;279;137040;-79
2023/10/14 08:11:33;;;;;;;;;;;;;;;17.20;100.00;100281.08;88644;279;22752;-77
2023/10/14 08:13:35;;;;;;;11.90;7.70;;;;;;;17.27;100.00;100277.67;88348;279;123814;-77
2023/10/14 08:15:37;;;;;;;12.90;7.20;;;;;;;17.36;100.00;100273.71;88245;274;22535;-76
2023/10/14 08:17:40;;;;;;;12.40;6.60;;;;;;;17.44;100.00;100275.63;88349;279;137175;-77
2023/10/14 08:19:43;;;;;;;9.50;6.80;;;;;;;17.54;100.00;100272.17;89869;276;22914;-78
2023/10/14 08:21:50;;;;;;;12.30;6.20;;;;;;;17.62;100.00;100267.77;88274;274;138435;-70
2023/10/14 08:23:52;;;;;;;6.20;5.60;;;;;;;17.68;100.00;100267.64;88575;277;22509;-77
2023/10/14 08:25:56;;;;;;;11.40;6.50;;;;;;;17.74;100.00;100264.75;88670;272;136700;-71
2023/10/14 08:28:00;;;;;;;9.20;6.00;;;;;;;17.83;100.00;100266.45;88518;272;22578;-73
2023/10/14 08:30:13;;;;;;;9.10;6.40;;;;;;;17.92;100.00;100260.28;88293;272;137064;-76
2023/10/14 08:32:14;;;;;;;10.80;5.00;;;;;;;18.00;100.00;100252.37;88560;272;138286;-79
2023/10/14 08:34:16;;;;;;;10.20;5.70;;;;;;;18.08;100.00;100247.71;88254;281;22615;-78
2023/10/14 08:36:18;;;;;;;6.80;5.20;;;;;;;18.17;100.00;100248.06;88169;274;137581;-74
2023/10/14 08:38:27;;;;;;;9.30;5.60;;;;;;;18.25;100.00;100241.62;88306;272;22535;-71
2023/10/14 08:40:29;;;;;;;8.70;6.20;;;;;;;18.31;100.00;100241.68;89587;276;137203;-71
2023/10/14 08:42:32;;;;;;;7.00;5.50;;;;;;;18.39;100.00;100244.95;88430;272;22998;-76
2023/10/14 08:44:39;;;;;;;6.50;5.90;;;;;;;18.45;100.00;100245.39;88354;273;137357;-77
2023/10/14 08:46:43;;;;;;;10.40;6.20;;;;;;;18.49;100.00;100238.65;88652;272;23975;-76
2023/10/14 08:48:46;;;;;;;10.00;6.70;;;;;;;18.51;100.00;100235.13;88826;271;137128;-76
2023/10/14 08:50:49;;;;;;;11.20;6.70;;;;;;;18.55;100.00;100232.17;88819;271;23749;-74
2023/10/14 08:52:53;;;;;;;10.40;5.60;;;;;;;18.59;99.98;100229.33;88501;272;137065;-76
2023/10/14 08:54:56;;;;;;;8.70;5.70;;;;;;;18.65;99.87;100225.42;88577;272;22533;-75
2023/10/14 08:56:59;;;;;;;8.30;6.70;;;;;;;18.67;99.25;100225.95;89723;280;137038;-78
2023/10/14 08:59:03;;;;;;;8.30;6.20;;;;;;;18.67;99.28;100221.47;88420;276;22537;-73
2023/10/14 09:01:11;;;;;;;9.20;5.80;;;;;;;18.70;99.84;100220.64;88730;273;136844;-79
2023/10/14 09:03:13;;;;;;;10.50;6.50;;;;;;;18.73;99.46;100217.45;88446;273;25111;-77
2023/10/14 09:05:19;;;;;;;8.00;7.10;;;;;;;18.76;99.07;100216.43;88411;276;137219;-78
2023/10/14 09:07:22;;;;;;;7.50;6.10;;;;;;;18.71;99.31;100200.27;88402;272;24072;-75
2023/10/14 09:09:24;;;;;;;8.50;7.20;;;;;;;18.77;99.28;100200.81;88342;276;137050;-77
2023/10/14 09:11:29;;;;;;;7.50;6.20;;;;;;;18.91;99.02;100207.35;88739;279;22530;-77
2023/10/14 09:13:33;;;;;;;9.80;7.00;;;;;;;18.98;98.37;100206.85;88465;272;137155;-72
2023/10/14 09:15:46;;;;;;;7.40;6.60;;;;;;;19.05;97.89;100197.94;88555;272;22537;-76
2023/10/14 09:17:49;;;;;;;8.50;7.00;;;;;;;19.08;97.23;100197.61;88338;279;136214;-76
2023/10/14 09:19:50;;;;;;;9.10;7.30;;;;;;;19.08;97.06;100190.63;88493;276;22540;-75
2023/10/14 09:21:57;;;;;;;8.80;7.10;;;;;;;19.04;97.02;100188.58;88363;276;135977;-77
2023/10/14 09:24:07;;;;;;;9.70;7.70;;;;;;;19.00;97.24;100186.41;88670;272;25117;-78
2023/10/14 09:26:09;;;;;;;10.50;7.00;;;;;;;18.97;97.35;100187.94;88808;279;22870;-75
2023/10/14 09:28:13;;;;;;;8.40;7.20;;;;;;;18.93;97.28;100188.24;88612;279;136488;-72
2023/10/14 09:30:18;;;;;;;9.30;7.20;;;;;;;18.90;97.99;100183.57;89521;279;22601;-72
2023/10/14 09:32:21;;;;;;;10.20;7.90;;;;;;;18.90;97.97;100173.02;88933;271;136718;-74
2023/10/14 09:34:23;;;;;;;10.20;7.20;;;;;;;18.93;98.03;100168.80;88519;276;25203;-73
2023/10/14 09:36:26;;;;;;;10.10;7.50;;;;;;;18.98;97.98;100161.43;88486;273;137850;-74
2023/10/14 09:38:31;;;;;;;11.60;7.30;;;;;;;19.06;97.44;100159.27;88640;280;25268;-74
2023/10/14 09:40:35;;;;;;;7.90;6.60;;;;;;;19.16;97.00;100155.15;88420;276;137268;-75
2023/10/14 09:42:38;;;;;;;8.30;6.50;;;;;;;19.23;96.34;100152.59;88684;279;22530;-72
2023/10/14 09:44:43;;;;;;;13.80;6.90;;;;;;;19.32;95.59;100154.59;88446;279;137099;-76
2023/10/14 09:46:48;;;;;;;11.80;8.20;;;;;;;19.36;95.44;100148.95;88543;280;25080;-75
2023/10/14 09:48:51;;;;;;;;;;;;;;;19.39;95.37;100150.26;88549;280;137866;-76
2023/10/14 09:50:57;;;;;;;7.80;6.90;;;;;;;19.46;95.35;100148.87;88551;276;22550;-74
2023/10/14 09:53:01;;;;;;;13.70;6.50;;;;;;;19.55;94.65;100142.40;88368;274;135866;-74
2023/10/14 09:55:09;;;;;;;7.70;6.40;;;;;;;19.66;94.22;100136.02;88702;272;22544;-75
2023/10/14 09:57:12;;;;;;;9.10;6.30;;;;;;;19.75;93.56;100129.34;88507;277;135859;-73
2023/10/14 09:59:17;;;;;;;12.20;6.70;;;;;;;19.81;92.81;100125.45;88499;273;23624;-74
2023/10/14 10:01:19;;;;;;;7.00;5.60;;;;;;;19.85;92.64;100122.69;88565;272;136490;-72